sensor_id;sensor_type;location;lat;lon;timestamp;P1;durP1;ratioP1;P2;durP2;ratioP2
3704;SDS011;1868;48.918;9.438;2023-02-22T00:01:43;10.07;;;6.40;;
3704;SDS011;1868;48.918;9.438;2023-02-22T00:04:16;10.10;;;6.20;;
3704;SDS011;1868;48.918;9.438;2023-02-22T00:06:46;7.47;;;5.10;;
3704;SDS011;1868;48.918;9.438;2023-02-22T00:09:16;8.23;;;5.90;;
3704;SDS011;1868;48.918;9.438;2023-02-22T00:11:48;6.90;;;5.27;;
3704;SDS011;1868;48.918;9.438;2023-02-22T00:14:16;9.40;;;5.77;;
3704;SDS011;1868;48.918;9.438;2023-02-22T00:16:46;8.47;;;6.40;;
3704;SDS011;1868;48.918;9.438;2023-02-22T00:19:15;7.70;;;5.30;;
3704;SDS011;1868;48.918;9.438;2023-02-22T00:21:44;6.80;;;5.23;;
3704;SDS011;1868;48.918;9.438;2023-02-22T00:24:12;7.07;;;5.20;;
3704;SDS011;1868;48.918;9.438;2023-02-22T00:26:51;8.60;;;5.10;;
3704;SDS011;1868;48.918;9.438;2023-02-22T00:29:22;5.87;;;4.50;;
3704;SDS011;1868;48.918;9.438;2023-02-22T00:31:51;8.03;;;5.43;;
3704;SDS011;1868;48.918;9.438;2023-02-22T00:34:20;7.63;;;4.60;;
3704;SDS011;1868;48.918;9.438;2023-02-22T00:36:49;6.97;;;5.20;;
3704;SDS011;1868;48.918;9.438;2023-02-22T00:39:18;6.20;;;4.33;;
3704;SDS011;1868;48.918;9.438;2023-02-22T00:41:46;4.60;;;3.83;;
3704;SDS011;1868;48.918;9.438;2023-02-22T00:44:16;5.90;;;5.20;;
3704;SDS011;1868;48.918;9.438;2023-02-22T00:46:44;8.60;;;5.60;;
3704;SDS011;1868;48.918;9.438;2023-02-22T00:49:13;9.73;;;5.50;;
3704;SDS011;1868;48.918;9.438;2023-02-22T00:51:41;7.13;;;5.10;;
3704;SDS011;1868;48.918;9.438;2023-02-22T00:54:10;10.43;;;6.20;;
3704;SDS011;1868;48.918;9.438;2023-02-22T00:56:40;6.13;;;5.53;;
3704;SDS011;1868;48.918;9.438;2023-02-22T00:59:08;9.40;;;6.13;;
3704;SDS011;1868;48.918;9.438;2023-02-22T01:01:38;5.83;;;5.20;;
3704;SDS011;1868;48.918;9.438;2023-02-22T01:04:06;8.77;;;6.40;;
3704;SDS011;1868;48.918;9.438;2023-02-22T01:06:37;7.10;;;5.10;;
3704;SDS011;1868;48.918;9.438;2023-02-22T01:09:05;9.60;;;5.57;;
3704;SDS011;1868;48.918;9.438;2023-02-22T01:11:34;7.87;;;6.03;;
3704;SDS011;1868;48.918;9.438;2023-02-22T01:14:02;10.10;;;6.07;;
3704;SDS011;1868;48.918;9.438;2023-02-22T01:16:35;9.73;;;6.53;;
3704;SDS011;1868;48.918;9.438;2023-02-22T01:19:05;9.70;;;6.20;;
3704;SDS011;1868;48.918;9.438;2023-02-22T01:21:33;8.13;;;6.37;;
3704;SDS011;1868;48.918;9.438;2023-02-22T01:24:02;9.93;;;5.90;;
3704;SDS011;1868;48.918;9.438;2023-02-22T01:26:30;10.43;;;6.77;;
3704;SDS011;1868;48.918;9.438;2023-02-22T01:28:59;8.97;;;6.73;;
3704;SDS011;1868;48.918;9.438;2023-02-22T01:31:27;9.97;;;6.87;;
3704;SDS011;1868;48.918;9.438;2023-02-22T01:33:56;12.83;;;7.80;;
3704;SDS011;1868;48.918;9.438;2023-02-22T01:36:26;11.57;;;7.43;;
3704;SDS011;1868;48.918;9.438;2023-02-22T01:38:54;9.53;;;6.83;;
3704;SDS011;1868;48.918;9.438;2023-02-22T01:41:23;11.40;;;7.83;;
3704;SDS011;1868;48.918;9.438;2023-02-22T01:43:51;10.83;;;7.40;;
3704;SDS011;1868;48.918;9.438;2023-02-22T01:46:21;10.20;;;7.70;;
3704;SDS011;1868;48.918;9.438;2023-02-22T01:48:53;10.40;;;6.97;;
3704;SDS011;1868;48.918;9.438;2023-02-22T01:51:26;13.33;;;7.30;;
3704;SDS011;1868;48.918;9.438;2023-02-22T01:53:59;7.80;;;6.53;;
3704;SDS011;1868;48.918;9.438;2023-02-22T01:56:31;9.80;;;7.60;;
3704;SDS011;1868;48.918;9.438;2023-02-22T01:59:05;10.67;;;7.20;;
3704;SDS011;1868;48.918;9.438;2023-02-22T02:01:38;9.80;;;6.70;;
3704;SDS011;1868;48.918;9.438;2023-02-22T02:04:10;10.80;;;7.40;;
3704;SDS011;1868;48.918;9.438;2023-02-22T02:06:44;9.90;;;7.30;;
3704;SDS011;1868;48.918;9.438;2023-02-22T02:09:15;10.90;;;7.97;;
3704;SDS011;1868;48.918;9.438;2023-02-22T02:11:51;18.90;;;9.20;;
3704;SDS011;1868;48.918;9.438;2023-02-22T02:14:20;9.50;;;7.33;;
3704;SDS011;1868;48.918;9.438;2023-02-22T02:16:49;10.33;;;7.33;;
3704;SDS011;1868;48.918;9.438;2023-02-22T02:19:22;8.50;;;6.53;;
3704;SDS011;1868;48.918;9.438;2023-02-22T02:22:09;7.70;;;6.43;;
3704;SDS011;1868;48.918;9.438;2023-02-22T02:25:10;12.83;;;7.27;;
3704;SDS011;1868;48.918;9.438;2023-02-22T02:32:07;8.40;;;5.67;;
3704;SDS011;1868;48.918;9.438;2023-02-22T02:34:57;7.43;;;5.97;;
3704;SDS011;1868;48.918;9.438;2023-02-22T02:37:34;6.87;;;5.40;;
3704;SDS011;1868;48.918;9.438;2023-02-22T02:40:18;7.30;;;5.50;;
3704;SDS011;1868;48.918;9.438;2023-02-22T02:42:53;6.00;;;5.13;;
3704;SDS011;1868;48.918;9.438;2023-02-22T02:45:28;7.23;;;5.87;;
3704;SDS011;1868;48.918;9.438;2023-02-22T02:48:04;6.20;;;5.60;;
3704;SDS011;1868;48.918;9.438;2023-02-22T02:50:36;8.23;;;5.50;;
3704;SDS011;1868;48.918;9.438;2023-02-22T02:53:09;5.50;;;4.50;;
3704;SDS011;1868;48.918;9.438;2023-02-22T02:55:42;5.23;;;4.50;;
3704;SDS011;1868;48.918;9.438;2023-02-22T02:58:15;6.67;;;4.60;;
3704;SDS011;1868;48.918;9.438;2023-02-22T03:00:46;7.97;;;5.50;;
3704;SDS011;1868;48.918;9.438;2023-02-22T03:03:29;9.03;;;5.83;;
3704;SDS011;1868;48.918;9.438;2023-02-22T03:06:24;11.30;;;5.03;;
3704;SDS011;1868;48.918;9.438;2023-02-22T03:09:19;9.27;;;6.60;;
3704;SDS011;1868;48.918;9.438;2023-02-22T03:12:05;7.83;;;6.07;;
3704;SDS011;1868;48.918;9.438;2023-02-22T03:14:47;10.10;;;6.47;;
3704;SDS011;1868;48.918;9.438;2023-02-22T03:17:31;7.20;;;5.43;;
3704;SDS011;1868;48.918;9.438;2023-02-22T03:20:12;12.00;;;6.03;;
3704;SDS011;1868;48.918;9.438;2023-02-22T03:22:49;7.77;;;5.80;;
3704;SDS011;1868;48.918;9.438;2023-02-22T03:25:26;10.23;;;6.57;;
3704;SDS011;1868;48.918;9.438;2023-02-22T03:28:01;8.53;;;6.67;;
3704;SDS011;1868;48.918;9.438;2023-02-22T03:30:34;8.70;;;6.53;;
3704;SDS011;1868;48.918;9.438;2023-02-22T03:33:08;11.10;;;6.77;;
3704;SDS011;1868;48.918;9.438;2023-02-22T03:35:43;8.63;;;6.70;;
3704;SDS011;1868;48.918;9.438;2023-02-22T03:38:16;11.27;;;7.17;;
3704;SDS011;1868;48.918;9.438;2023-02-22T03:40:48;10.47;;;6.60;;
3704;SDS011;1868;48.918;9.438;2023-02-22T03:43:21;8.63;;;6.33;;
3704;SDS011;1868;48.918;9.438;2023-02-22T03:45:57;6.40;;;5.77;;
3704;SDS011;1868;48.918;9.438;2023-02-22T03:48:29;9.17;;;5.90;;
3704;SDS011;1868;48.918;9.438;2023-02-22T03:51:06;8.90;;;5.97;;
3704;SDS011;1868;48.918;9.438;2023-02-22T03:53:37;9.23;;;6.47;;
3704;SDS011;1868;48.918;9.438;2023-02-22T03:56:08;9.30;;;6.03;;
3704;SDS011;1868;48.918;9.438;2023-02-22T03:58:42;13.70;;;6.60;;
3704;SDS011;1868;48.918;9.438;2023-02-22T04:01:11;8.73;;;6.27;;
3704;SDS011;1868;48.918;9.438;2023-02-22T04:03:41;9.50;;;5.03;;
3704;SDS011;1868;48.918;9.438;2023-02-22T04:06:12;9.17;;;5.70;;
3704;SDS011;1868;48.918;9.438;2023-02-22T04:08:40;11.90;;;6.37;;
3704;SDS011;1868;48.918;9.438;2023-02-22T04:11:09;7.00;;;5.33;;
3704;SDS011;1868;48.918;9.438;2023-02-22T04:13:39;10.00;;;5.30;;
3704;SDS011;1868;48.918;9.438;2023-02-22T04:16:08;11.43;;;6.00;;
3704;SDS011;1868;48.918;9.438;2023-02-22T04:18:37;8.83;;;5.60;;
3704;SDS011;1868;48.918;9.438;2023-02-22T04:21:06;8.37;;;5.57;;
3704;SDS011;1868;48.918;9.438;2023-02-22T04:23:41;9.03;;;4.50;;
3704;SDS011;1868;48.918;9.438;2023-02-22T04:26:11;11.07;;;5.80;;
3704;SDS011;1868;48.918;9.438;2023-02-22T04:28:41;8.20;;;5.17;;
3704;SDS011;1868;48.918;9.438;2023-02-22T04:31:14;7.10;;;5.40;;
3704;SDS011;1868;48.918;9.438;2023-02-22T04:33:43;6.87;;;5.30;;
3704;SDS011;1868;48.918;9.438;2023-02-22T04:36:15;7.00;;;5.10;;
3704;SDS011;1868;48.918;9.438;2023-02-22T04:38:46;6.53;;;5.30;;
3704;SDS011;1868;48.918;9.438;2023-02-22T04:41:15;8.27;;;5.10;;
3704;SDS011;1868;48.918;9.438;2023-02-22T04:43:45;5.77;;;4.70;;
3704;SDS011;1868;48.918;9.438;2023-02-22T04:46:17;8.47;;;5.33;;
3704;SDS011;1868;48.918;9.438;2023-02-22T04:48:50;6.87;;;4.83;;
3704;SDS011;1868;48.918;9.438;2023-02-22T04:51:24;7.73;;;5.30;;
3704;SDS011;1868;48.918;9.438;2023-02-22T04:54:05;6.67;;;4.87;;
3704;SDS011;1868;48.918;9.438;2023-02-22T04:56:36;8.47;;;5.23;;
3704;SDS011;1868;48.918;9.438;2023-02-22T04:59:04;8.90;;;4.33;;
3704;SDS011;1868;48.918;9.438;2023-02-22T05:01:33;10.30;;;5.53;;
3704;SDS011;1868;48.918;9.438;2023-02-22T05:04:03;7.90;;;5.70;;
3704;SDS011;1868;48.918;9.438;2023-02-22T05:06:33;8.70;;;5.37;;
3704;SDS011;1868;48.918;9.438;2023-02-22T05:09:01;10.63;;;5.57;;
3704;SDS011;1868;48.918;9.438;2023-02-22T05:11:31;11.00;;;4.90;;
3704;SDS011;1868;48.918;9.438;2023-02-22T05:13:59;11.50;;;5.77;;
3704;SDS011;1868;48.918;9.438;2023-02-22T05:16:27;6.97;;;5.13;;
3704;SDS011;1868;48.918;9.438;2023-02-22T05:18:56;6.77;;;6.07;;
3704;SDS011;1868;48.918;9.438;2023-02-22T05:21:24;9.90;;;6.47;;
3704;SDS011;1868;48.918;9.438;2023-02-22T05:23:52;8.67;;;5.57;;
3704;SDS011;1868;48.918;9.438;2023-02-22T05:26:21;8.97;;;5.37;;
3704;SDS011;1868;48.918;9.438;2023-02-22T05:28:50;7.97;;;6.23;;
3704;SDS011;1868;48.918;9.438;2023-02-22T05:31:19;8.43;;;5.27;;
3704;SDS011;1868;48.918;9.438;2023-02-22T05:33:48;7.20;;;5.03;;
3704;SDS011;1868;48.918;9.438;2023-02-22T05:36:16;8.33;;;5.23;;
3704;SDS011;1868;48.918;9.438;2023-02-22T05:38:45;7.00;;;5.00;;
3704;SDS011;1868;48.918;9.438;2023-02-22T05:41:13;6.70;;;5.30;;
3704;SDS011;1868;48.918;9.438;2023-02-22T05:43:42;10.93;;;6.33;;
3704;SDS011;1868;48.918;9.438;2023-02-22T05:46:12;9.27;;;5.87;;
3704;SDS011;1868;48.918;9.438;2023-02-22T05:48:40;12.30;;;6.33;;
3704;SDS011;1868;48.918;9.438;2023-02-22T05:51:08;7.57;;;6.00;;
3704;SDS011;1868;48.918;9.438;2023-02-22T05:53:37;8.70;;;5.10;;
3704;SDS011;1868;48.918;9.438;2023-02-22T05:56:05;7.17;;;5.33;;
3704;SDS011;1868;48.918;9.438;2023-02-22T05:58:34;10.20;;;5.00;;
3704;SDS011;1868;48.918;9.438;2023-02-22T06:01:02;8.60;;;6.20;;
3704;SDS011;1868;48.918;9.438;2023-02-22T06:03:33;8.57;;;5.53;;
3704;SDS011;1868;48.918;9.438;2023-02-22T06:06:01;9.20;;;6.03;;
3704;SDS011;1868;48.918;9.438;2023-02-22T06:08:30;6.83;;;5.20;;
3704;SDS011;1868;48.918;9.438;2023-02-22T06:10:58;9.70;;;5.63;;
3704;SDS011;1868;48.918;9.438;2023-02-22T06:13:27;7.40;;;5.87;;
3704;SDS011;1868;48.918;9.438;2023-02-22T06:15:55;11.43;;;6.57;;
3704;SDS011;1868;48.918;9.438;2023-02-22T06:18:24;14.70;;;6.20;;
3704;SDS011;1868;48.918;9.438;2023-02-22T06:20:57;7.17;;;5.60;;
3704;SDS011;1868;48.918;9.438;2023-02-22T06:23:26;12.23;;;6.47;;
3704;SDS011;1868;48.918;9.438;2023-02-22T06:25:54;7.40;;;5.47;;
3704;SDS011;1868;48.918;9.438;2023-02-22T06:28:25;12.40;;;6.27;;
3704;SDS011;1868;48.918;9.438;2023-02-22T06:30:54;11.93;;;5.67;;
3704;SDS011;1868;48.918;9.438;2023-02-22T06:33:22;8.47;;;5.90;;
3704;SDS011;1868;48.918;9.438;2023-02-22T06:35:51;7.10;;;6.20;;
3704;SDS011;1868;48.918;9.438;2023-02-22T06:38:22;7.90;;;5.87;;
3704;SDS011;1868;48.918;9.438;2023-02-22T06:40:53;9.93;;;5.97;;
3704;SDS011;1868;48.918;9.438;2023-02-22T06:43:24;7.20;;;5.80;;
3704;SDS011;1868;48.918;9.438;2023-02-22T06:45:55;6.43;;;4.70;;
3704;SDS011;1868;48.918;9.438;2023-02-22T06:48:28;10.37;;;6.30;;
3704;SDS011;1868;48.918;9.438;2023-02-22T06:50:58;8.33;;;5.53;;
3704;SDS011;1868;48.918;9.438;2023-02-22T06:53:29;7.13;;;5.17;;
3704;SDS011;1868;48.918;9.438;2023-02-22T06:55:59;9.50;;;5.63;;
3704;SDS011;1868;48.918;9.438;2023-02-22T06:58:27;7.73;;;6.50;;
3704;SDS011;1868;48.918;9.438;2023-02-22T07:00:56;8.50;;;5.60;;
3704;SDS011;1868;48.918;9.438;2023-02-22T07:03:25;7.40;;;5.30;;
3704;SDS011;1868;48.918;9.438;2023-02-22T07:31:54;7.40;;;5.33;;
3704;SDS011;1868;48.918;9.438;2023-02-22T07:34:23;11.13;;;5.83;;
3704;SDS011;1868;48.918;9.438;2023-02-22T07:36:55;9.87;;;5.90;;
3704;SDS011;1868;48.918;9.438;2023-02-22T07:39:38;8.27;;;6.40;;
3704;SDS011;1868;48.918;9.438;2023-02-22T07:42:09;14.00;;;6.77;;
3704;SDS011;1868;48.918;9.438;2023-02-22T07:44:37;10.30;;;6.53;;
3704;SDS011;1868;48.918;9.438;2023-02-22T07:47:07;9.03;;;6.17;;
3704;SDS011;1868;48.918;9.438;2023-02-22T07:49:38;12.20;;;7.83;;
3704;SDS011;1868;48.918;9.438;2023-02-22T07:57:56;11.10;;;6.27;;
3704;SDS011;1868;48.918;9.438;2023-02-22T08:00:32;10.80;;;6.43;;
3704;SDS011;1868;48.918;9.438;2023-02-22T08:03:10;5.33;;;4.43;;
3704;SDS011;1868;48.918;9.438;2023-02-22T08:05:40;8.53;;;6.73;;
3704;SDS011;1868;48.918;9.438;2023-02-22T08:08:20;7.13;;;6.43;;
3704;SDS011;1868;48.918;9.438;2023-02-22T08:10:49;7.47;;;5.63;;
3704;SDS011;1868;48.918;9.438;2023-02-22T08:13:18;7.97;;;6.50;;
3704;SDS011;1868;48.918;9.438;2023-02-22T08:16:04;10.43;;;7.03;;
3704;SDS011;1868;48.918;9.438;2023-02-22T08:18:34;8.03;;;6.23;;
3704;SDS011;1868;48.918;9.438;2023-02-22T08:21:03;7.03;;;6.33;;
3704;SDS011;1868;48.918;9.438;2023-02-22T08:23:32;7.03;;;5.70;;
3704;SDS011;1868;48.918;9.438;2023-02-22T08:26:04;6.90;;;5.27;;
3704;SDS011;1868;48.918;9.438;2023-02-22T08:28:36;7.30;;;5.40;;
3704;SDS011;1868;48.918;9.438;2023-02-22T08:31:04;8.20;;;6.20;;
3704;SDS011;1868;48.918;9.438;2023-02-22T08:33:36;8.27;;;6.27;;
3704;SDS011;1868;48.918;9.438;2023-02-22T08:36:04;8.80;;;5.63;;
3704;SDS011;1868;48.918;9.438;2023-02-22T08:38:34;8.63;;;6.50;;
3704;SDS011;1868;48.918;9.438;2023-02-22T08:41:03;6.50;;;5.13;;
3704;SDS011;1868;48.918;9.438;2023-02-22T08:43:32;7.00;;;5.93;;
3704;SDS011;1868;48.918;9.438;2023-02-22T08:46:00;7.30;;;5.50;;
3704;SDS011;1868;48.918;9.438;2023-02-22T08:48:31;7.10;;;5.67;;
3704;SDS011;1868;48.918;9.438;2023-02-22T08:51:21;7.20;;;6.37;;
3704;SDS011;1868;48.918;9.438;2023-02-22T08:53:53;8.27;;;6.10;;
3704;SDS011;1868;48.918;9.438;2023-02-22T09:06:58;8.00;;;6.13;;
3704;SDS011;1868;48.918;9.438;2023-02-22T09:09:27;11.30;;;7.70;;
3704;SDS011;1868;48.918;9.438;2023-02-22T09:11:56;10.47;;;7.40;;
3704;SDS011;1868;48.918;9.438;2023-02-22T09:22:59;8.70;;;5.47;;
3704;SDS011;1868;48.918;9.438;2023-02-22T09:25:29;11.33;;;7.73;;
3704;SDS011;1868;48.918;9.438;2023-02-22T09:27:59;6.33;;;5.67;;
3704;SDS011;1868;48.918;9.438;2023-02-22T09:30:29;18.20;;;6.50;;
3704;SDS011;1868;48.918;9.438;2023-02-22T09:32:59;7.30;;;5.07;;
3704;SDS011;1868;48.918;9.438;2023-02-22T09:35:31;5.87;;;5.23;;
3704;SDS011;1868;48.918;9.438;2023-02-22T09:38:05;8.13;;;5.40;;
3704;SDS011;1868;48.918;9.438;2023-02-22T09:40:39;7.40;;;5.70;;
3704;SDS011;1868;48.918;9.438;2023-02-22T09:43:17;9.53;;;5.23;;
3704;SDS011;1868;48.918;9.438;2023-02-22T09:46:09;6.40;;;4.80;;
3704;SDS011;1868;48.918;9.438;2023-02-22T09:48:51;7.70;;;5.67;;
3704;SDS011;1868;48.918;9.438;2023-02-22T09:51:30;6.80;;;4.80;;
3704;SDS011;1868;48.918;9.438;2023-02-22T09:54:10;4.40;;;4.00;;
3704;SDS011;1868;48.918;9.438;2023-02-22T09:56:49;5.13;;;4.47;;
3704;SDS011;1868;48.918;9.438;2023-02-22T09:59:26;6.03;;;4.50;;
3704;SDS011;1868;48.918;9.438;2023-02-22T10:02:01;5.87;;;5.23;;
3704;SDS011;1868;48.918;9.438;2023-02-22T10:04:46;5.60;;;5.10;;
3704;SDS011;1868;48.918;9.438;2023-02-22T10:07:22;5.00;;;4.47;;
3704;SDS011;1868;48.918;9.438;2023-02-22T10:09:58;5.47;;;4.97;;
3704;SDS011;1868;48.918;9.438;2023-02-22T10:12:34;7.83;;;5.50;;
3704;SDS011;1868;48.918;9.438;2023-02-22T10:15:15;5.93;;;4.53;;
3704;SDS011;1868;48.918;9.438;2023-02-22T10:18:02;5.87;;;4.67;;
3704;SDS011;1868;48.918;9.438;2023-02-22T10:20:59;5.77;;;4.40;;
3704;SDS011;1868;48.918;9.438;2023-02-22T10:23:35;8.93;;;5.50;;
3704;SDS011;1868;48.918;9.438;2023-02-22T10:26:14;6.50;;;5.60;;
3704;SDS011;1868;48.918;9.438;2023-02-22T10:28:51;10.47;;;6.17;;
3704;SDS011;1868;48.918;9.438;2023-02-22T10:31:27;5.93;;;5.40;;
3704;SDS011;1868;48.918;9.438;2023-02-22T10:34:01;9.90;;;5.70;;
3704;SDS011;1868;48.918;9.438;2023-02-22T10:36:31;8.97;;;5.70;;
3704;SDS011;1868;48.918;9.438;2023-02-22T10:39:10;7.90;;;6.03;;
3704;SDS011;1868;48.918;9.438;2023-02-22T10:41:51;6.93;;;5.60;;
3704;SDS011;1868;48.918;9.438;2023-02-22T10:44:31;9.30;;;5.47;;
3704;SDS011;1868;48.918;9.438;2023-02-22T10:47:00;5.67;;;5.17;;
3704;SDS011;1868;48.918;9.438;2023-02-22T10:49:33;10.50;;;6.77;;
3704;SDS011;1868;48.918;9.438;2023-02-22T10:52:13;8.97;;;8.07;;
3704;SDS011;1868;48.918;9.438;2023-02-22T10:54:47;7.33;;;5.93;;
3704;SDS011;1868;48.918;9.438;2023-02-22T10:57:25;11.10;;;7.00;;
3704;SDS011;1868;48.918;9.438;2023-02-22T10:59:56;9.10;;;5.40;;
3704;SDS011;1868;48.918;9.438;2023-02-22T11:02:26;7.30;;;5.30;;
3704;SDS011;1868;48.918;9.438;2023-02-22T11:08:12;8.10;;;5.97;;
3704;SDS011;1868;48.918;9.438;2023-02-22T11:10:58;11.00;;;6.13;;
3704;SDS011;1868;48.918;9.438;2023-02-22T11:14:25;9.30;;;5.67;;
3704;SDS011;1868;48.918;9.438;2023-02-22T11:16:57;7.97;;;5.60;;
3704;SDS011;1868;48.918;9.438;2023-02-22T11:19:32;5.63;;;5.13;;
3704;SDS011;1868;48.918;9.438;2023-02-22T11:22:10;7.87;;;6.50;;
3704;SDS011;1868;48.918;9.438;2023-02-22T11:24:47;6.60;;;5.33;;
3704;SDS011;1868;48.918;9.438;2023-02-22T11:27:26;9.13;;;5.20;;
3704;SDS011;1868;48.918;9.438;2023-02-22T11:30:26;8.60;;;6.50;;
3704;SDS011;1868;48.918;9.438;2023-02-22T11:32:58;6.90;;;5.17;;
3704;SDS011;1868;48.918;9.438;2023-02-22T11:35:47;9.37;;;5.30;;
3704;SDS011;1868;48.918;9.438;2023-02-22T11:38:24;5.47;;;4.80;;
3704;SDS011;1868;48.918;9.438;2023-02-22T11:41:04;6.30;;;5.17;;
3704;SDS011;1868;48.918;9.438;2023-02-22T11:43:40;6.77;;;5.63;;
3704;SDS011;1868;48.918;9.438;2023-02-22T11:46:16;9.30;;;6.50;;
3704;SDS011;1868;48.918;9.438;2023-02-22T11:49:04;6.80;;;6.03;;
3704;SDS011;1868;48.918;9.438;2023-02-22T11:55:04;10.37;;;7.20;;
3704;SDS011;1868;48.918;9.438;2023-02-22T11:58:09;7.00;;;6.30;;
3704;SDS011;1868;48.918;9.438;2023-02-22T12:01:01;9.40;;;6.20;;
3704;SDS011;1868;48.918;9.438;2023-02-22T12:03:47;8.07;;;5.57;;
3704;SDS011;1868;48.918;9.438;2023-02-22T12:06:50;7.93;;;5.57;;
3704;SDS011;1868;48.918;9.438;2023-02-22T12:09:41;8.90;;;5.30;;
3704;SDS011;1868;48.918;9.438;2023-02-22T12:12:21;7.07;;;5.70;;
3704;SDS011;1868;48.918;9.438;2023-02-22T12:15:01;10.13;;;5.97;;
3704;SDS011;1868;48.918;9.438;2023-02-22T12:28:24;8.80;;;6.80;;
3704;SDS011;1868;48.918;9.438;2023-02-22T12:31:02;8.43;;;5.87;;
3704;SDS011;1868;48.918;9.438;2023-02-22T12:33:50;8.40;;;6.40;;
3704;SDS011;1868;48.918;9.438;2023-02-22T12:36:29;9.73;;;7.00;;
3704;SDS011;1868;48.918;9.438;2023-02-22T12:39:03;8.30;;;6.10;;
3704;SDS011;1868;48.918;9.438;2023-02-22T12:41:56;9.80;;;7.20;;
3704;SDS011;1868;48.918;9.438;2023-02-22T12:44:26;11.80;;;6.70;;
3704;SDS011;1868;48.918;9.438;2023-02-22T12:47:01;15.83;;;6.87;;
3704;SDS011;1868;48.918;9.438;2023-02-22T12:49:35;12.83;;;6.90;;
3704;SDS011;1868;48.918;9.438;2023-02-22T12:52:09;17.20;;;7.90;;
3704;SDS011;1868;48.918;9.438;2023-02-22T12:54:49;10.23;;;6.70;;
3704;SDS011;1868;48.918;9.438;2023-02-22T12:57:26;15.10;;;8.07;;
3704;SDS011;1868;48.918;9.438;2023-02-22T13:00:24;8.90;;;6.00;;
3704;SDS011;1868;48.918;9.438;2023-02-22T13:02:55;10.77;;;7.10;;
3704;SDS011;1868;48.918;9.438;2023-02-22T13:05:29;10.83;;;6.70;;
3704;SDS011;1868;48.918;9.438;2023-02-22T13:08:07;9.10;;;6.90;;
3704;SDS011;1868;48.918;9.438;2023-02-22T13:11:00;10.43;;;7.30;;
3704;SDS011;1868;48.918;9.438;2023-02-22T13:13:44;10.10;;;6.30;;
3704;SDS011;1868;48.918;9.438;2023-02-22T13:16:28;6.70;;;5.43;;
3704;SDS011;1868;48.918;9.438;2023-02-22T13:19:07;11.83;;;6.90;;
3704;SDS011;1868;48.918;9.438;2023-02-22T13:21:54;8.13;;;6.37;;
3704;SDS011;1868;48.918;9.438;2023-02-22T13:24:27;10.67;;;8.30;;
3704;SDS011;1868;48.918;9.438;2023-02-22T13:27:07;12.00;;;7.30;;
3704;SDS011;1868;48.918;9.438;2023-02-22T13:29:43;10.67;;;6.40;;
3704;SDS011;1868;48.918;9.438;2023-02-22T13:32:19;10.40;;;7.93;;
3704;SDS011;1868;48.918;9.438;2023-02-22T13:35:07;9.80;;;5.70;;
3704;SDS011;1868;48.918;9.438;2023-02-22T13:38:04;10.60;;;7.10;;
3704;SDS011;1868;48.918;9.438;2023-02-22T13:43:55;14.60;;;8.50;;
3704;SDS011;1868;48.918;9.438;2023-02-22T13:47:01;9.47;;;7.30;;
3704;SDS011;1868;48.918;9.438;2023-02-22T13:53:11;14.90;;;8.53;;
3704;SDS011;1868;48.918;9.438;2023-02-22T13:55:46;10.50;;;8.00;;
3704;SDS011;1868;48.918;9.438;2023-02-22T13:58:19;12.50;;;9.57;;
3704;SDS011;1868;48.918;9.438;2023-02-22T14:00:56;14.27;;;9.10;;
3704;SDS011;1868;48.918;9.438;2023-02-22T14:03:34;15.63;;;10.17;;
3704;SDS011;1868;48.918;9.438;2023-02-22T14:06:08;16.83;;;10.00;;
3704;SDS011;1868;48.918;9.438;2023-02-22T14:09:06;15.60;;;10.20;;
3704;SDS011;1868;48.918;9.438;2023-02-22T14:14:15;12.90;;;8.77;;
3704;SDS011;1868;48.918;9.438;2023-02-22T14:26:10;9.73;;;6.80;;
3704;SDS011;1868;48.918;9.438;2023-02-22T14:28:53;9.80;;;8.10;;
3704;SDS011;1868;48.918;9.438;2023-02-22T14:31:27;9.10;;;7.00;;
3704;SDS011;1868;48.918;9.438;2023-02-22T14:58:56;50.60;;;11.50;;
3704;SDS011;1868;48.918;9.438;2023-02-22T15:05:55;16.00;;;7.93;;
3704;SDS011;1868;48.918;9.438;2023-02-22T15:08:29;16.00;;;7.90;;
3704;SDS011;1868;48.918;9.438;2023-02-22T15:23:54;11.20;;;7.10;;
3704;SDS011;1868;48.918;9.438;2023-02-22T15:26:28;11.80;;;7.43;;
3704;SDS011;1868;48.918;9.438;2023-02-22T15:29:08;8.30;;;6.40;;
3704;SDS011;1868;48.918;9.438;2023-02-22T15:31:41;11.57;;;7.60;;
3704;SDS011;1868;48.918;9.438;2023-02-22T15:34:17;13.80;;;8.00;;
3704;SDS011;1868;48.918;9.438;2023-02-22T15:36:53;13.33;;;6.90;;
3704;SDS011;1868;48.918;9.438;2023-02-22T15:39:28;10.53;;;7.60;;
3704;SDS011;1868;48.918;9.438;2023-02-22T15:42:00;15.30;;;9.63;;
3704;SDS011;1868;48.918;9.438;2023-02-22T15:44:38;11.63;;;8.17;;
3704;SDS011;1868;48.918;9.438;2023-02-22T15:47:09;12.77;;;9.10;;
3704;SDS011;1868;48.918;9.438;2023-02-22T15:49:43;13.80;;;9.03;;
3704;SDS011;1868;48.918;9.438;2023-02-22T15:52:16;11.80;;;8.03;;
3704;SDS011;1868;48.918;9.438;2023-02-22T15:54:49;11.73;;;8.00;;
3704;SDS011;1868;48.918;9.438;2023-02-22T15:57:19;12.63;;;9.00;;
3704;SDS011;1868;48.918;9.438;2023-02-22T15:59:51;13.40;;;9.10;;
3704;SDS011;1868;48.918;9.438;2023-02-22T16:02:29;10.80;;;8.50;;
3704;SDS011;1868;48.918;9.438;2023-02-22T16:05:04;14.60;;;9.60;;
3704;SDS011;1868;48.918;9.438;2023-02-22T16:07:37;14.57;;;10.87;;
3704;SDS011;1868;48.918;9.438;2023-02-22T16:10:20;21.23;;;10.17;;
3704;SDS011;1868;48.918;9.438;2023-02-22T16:13:06;13.17;;;9.47;;
3704;SDS011;1868;48.918;9.438;2023-02-22T16:15:58;12.37;;;8.40;;
3704;SDS011;1868;48.918;9.438;2023-02-22T16:18:31;53.10;;;30.57;;
3704;SDS011;1868;48.918;9.438;2023-02-22T16:21:05;16.60;;;12.50;;
3704;SDS011;1868;48.918;9.438;2023-02-22T16:23:45;13.20;;;9.07;;
3704;SDS011;1868;48.918;9.438;2023-02-22T16:26:19;10.50;;;7.30;;
3704;SDS011;1868;48.918;9.438;2023-02-22T16:28:55;13.20;;;9.60;;
3704;SDS011;1868;48.918;9.438;2023-02-22T16:31:30;13.90;;;8.07;;
3704;SDS011;1868;48.918;9.438;2023-02-22T16:34:02;13.03;;;9.07;;
3704;SDS011;1868;48.918;9.438;2023-02-22T16:36:37;13.80;;;9.13;;
3704;SDS011;1868;48.918;9.438;2023-02-22T16:39:11;11.30;;;8.27;;
3704;SDS011;1868;48.918;9.438;2023-02-22T16:41:48;25.63;;;16.33;;
3704;SDS011;1868;48.918;9.438;2023-02-22T16:44:18;27.83;;;18.60;;
3704;SDS011;1868;48.918;9.438;2023-02-22T16:46:46;13.63;;;9.43;;
3704;SDS011;1868;48.918;9.438;2023-02-22T16:49:14;16.83;;;9.60;;
3704;SDS011;1868;48.918;9.438;2023-02-22T16:51:51;13.77;;;9.63;;
3704;SDS011;1868;48.918;9.438;2023-02-22T16:54:22;13.60;;;9.07;;
3704;SDS011;1868;48.918;9.438;2023-02-22T16:56:55;18.83;;;10.57;;
3704;SDS011;1868;48.918;9.438;2023-02-22T16:59:27;20.37;;;13.30;;
3704;SDS011;1868;48.918;9.438;2023-02-22T17:01:59;29.90;;;15.30;;
3704;SDS011;1868;48.918;9.438;2023-02-22T17:04:32;23.47;;;14.40;;
3704;SDS011;1868;48.918;9.438;2023-02-22T17:07:01;21.43;;;13.73;;
3704;SDS011;1868;48.918;9.438;2023-02-22T17:09:30;18.70;;;10.97;;
3704;SDS011;1868;48.918;9.438;2023-02-22T17:12:00;11.60;;;8.83;;
3704;SDS011;1868;48.918;9.438;2023-02-22T17:14:30;15.83;;;10.20;;
3704;SDS011;1868;48.918;9.438;2023-02-22T17:17:01;13.43;;;9.70;;
3704;SDS011;1868;48.918;9.438;2023-02-22T17:19:30;10.73;;;9.00;;
3704;SDS011;1868;48.918;9.438;2023-02-22T17:21:58;12.50;;;8.20;;
3704;SDS011;1868;48.918;9.438;2023-02-22T17:24:31;22.87;;;13.90;;
3704;SDS011;1868;48.918;9.438;2023-02-22T17:27:00;22.93;;;13.40;;
3704;SDS011;1868;48.918;9.438;2023-02-22T17:29:29;17.53;;;12.47;;
3704;SDS011;1868;48.918;9.438;2023-02-22T17:31:57;14.80;;;10.77;;
3704;SDS011;1868;48.918;9.438;2023-02-22T17:34:26;15.10;;;11.63;;
3704;SDS011;1868;48.918;9.438;2023-02-22T17:36:55;12.63;;;9.70;;
3704;SDS011;1868;48.918;9.438;2023-02-22T17:39:23;15.43;;;10.50;;
3704;SDS011;1868;48.918;9.438;2023-02-22T17:41:52;17.37;;;8.80;;
3704;SDS011;1868;48.918;9.438;2023-02-22T17:44:24;25.17;;;10.53;;
3704;SDS011;1868;48.918;9.438;2023-02-22T17:46:55;17.53;;;9.90;;
3704;SDS011;1868;48.918;9.438;2023-02-22T17:49:23;10.87;;;8.37;;
3704;SDS011;1868;48.918;9.438;2023-02-22T17:51:52;11.87;;;7.67;;
3704;SDS011;1868;48.918;9.438;2023-02-22T17:54:20;25.30;;;11.00;;
3704;SDS011;1868;48.918;9.438;2023-02-22T17:56:49;31.20;;;18.57;;
3704;SDS011;1868;48.918;9.438;2023-02-22T17:59:18;19.00;;;15.10;;
3704;SDS011;1868;48.918;9.438;2023-02-22T18:01:47;18.70;;;12.00;;
3704;SDS011;1868;48.918;9.438;2023-02-22T18:04:18;13.70;;;9.97;;